sensor_id;sensor_type;location;lat;lon;timestamp;temperature;humidity
47600;DHT22;33323;52.124;6.018;2023-04-15T00:01:01;4.80;99.90
47600;DHT22;33323;52.124;6.018;2023-04-15T00:03:28;4.90;99.90
47600;DHT22;33323;52.124;6.018;2023-04-15T00:05:57;5.00;99.90
47600;DHT22;33323;52.124;6.018;2023-04-15T00:08:24;4.90;99.90
47600;DHT22;33323;52.124;6.018;2023-04-15T00:10:52;4.70;99.90
47600;DHT22;33323;52.124;6.018;2023-04-15T00:13:19;4.60;99.90
47600;DHT22;33323;52.124;6.018;2023-04-15T00:15:46;4.60;99.90
47600;DHT22;33323;52.124;6.018;2023-04-15T00:18:13;4.60;99.90
47600;DHT22;33323;52.124;6.018;2023-04-15T00:20:40;4.50;99.90
47600;DHT22;33323;52.124;6.018;2023-04-15T00:23:08;4.50;99.90
47600;DHT22;33323;52.124;6.018;2023-04-15T00:25:35;4.40;99.90
47600;DHT22;33323;52.124;6.018;2023-04-15T00:28:02;4.40;99.90
47600;DHT22;33323;52.124;6.018;2023-04-15T00:30:29;4.50;99.90
47600;DHT22;33323;52.124;6.018;2023-04-15T00:32:57;4.30;99.90
47600;DHT22;33323;52.124;6.018;2023-04-15T00:35:24;4.30;99.90
47600;DHT22;33323;52.124;6.018;2023-04-15T00:37:51;4.30;99.90
47600;DHT22;33323;52.124;6.018;2023-04-15T00:40:20;4.20;99.90
47600;DHT22;33323;52.124;6.018;2023-04-15T00:42:48;4.20;99.90
47600;DHT22;33323;52.124;6.018;2023-04-15T00:45:16;4.10;99.90
47600;DHT22;33323;52.124;6.018;2023-04-15T00:47:43;4.00;99.90
47600;DHT22;33323;52.124;6.018;2023-04-15T00:50:11;3.90;99.90
47600;DHT22;33323;52.124;6.018;2023-04-15T00:52:39;3.80;99.90
47600;DHT22;33323;52.124;6.018;2023-04-15T00:55:08;3.80;99.90
47600;DHT22;33323;52.124;6.018;2023-04-15T00:57:35;3.80;99.90
47600;DHT22;33323;52.124;6.018;2023-04-15T01:00:03;3.70;99.90
47600;DHT22;33323;52.124;6.018;2023-04-15T01:02:34;3.80;99.90
47600;DHT22;33323;52.124;6.018;2023-04-15T01:05:03;3.60;99.90
47600;DHT22;33323;52.124;6.018;2023-04-15T01:07:31;3.60;99.90
47600;DHT22;33323;52.124;6.018;2023-04-15T01:09:58;3.70;99.90
47600;DHT22;33323;52.124;6.018;2023-04-15T01:12:26;3.70;99.90
47600;DHT22;33323;52.124;6.018;2023-04-15T01:14:54;3.70;99.90
47600;DHT22;33323;52.124;6.018;2023-04-15T01:17:23;3.70;99.90
47600;DHT22;33323;52.124;6.018;2023-04-15T01:19:51;3.80;99.90
47600;DHT22;33323;52.124;6.018;2023-04-15T01:22:19;3.70;99.90
47600;DHT22;33323;52.124;6.018;2023-04-15T01:25:05;3.70;99.90
47600;DHT22;33323;52.124;6.018;2023-04-15T01:27:35;3.80;99.90
47600;DHT22;33323;52.124;6.018;2023-04-15T01:30:07;3.80;99.90
47600;DHT22;33323;52.124;6.018;2023-04-15T01:32:35;3.60;99.90
47600;DHT22;33323;52.124;6.018;2023-04-15T01:35:02;3.50;99.90
47600;DHT22;33323;52.124;6.018;2023-04-15T01:37:29;3.40;99.90
47600;DHT22;33323;52.124;6.018;2023-04-15T01:39:56;3.30;99.90
47600;DHT22;33323;52.124;6.018;2023-04-15T01:42:23;3.30;99.90
47600;DHT22;33323;52.124;6.018;2023-04-15T01:44:50;3.30;99.90
47600;DHT22;33323;52.124;6.018;2023-04-15T01:47:18;3.30;99.90
47600;DHT22;33323;52.124;6.018;2023-04-15T01:49:46;3.30;99.90
47600;DHT22;33323;52.124;6.018;2023-04-15T01:52:13;3.20;99.90
47600;DHT22;33323;52.124;6.018;2023-04-15T01:54:40;3.10;99.90
47600;DHT22;33323;52.124;6.018;2023-04-15T01:57:07;3.20;99.90
47600;DHT22;33323;52.124;6.018;2023-04-15T01:59:34;3.20;99.90
47600;DHT22;33323;52.124;6.018;2023-04-15T02:02:01;3.20;99.90
47600;DHT22;33323;52.124;6.018;2023-04-15T02:04:29;3.10;99.90
47600;DHT22;33323;52.124;6.018;2023-04-15T02:06:59;3.10;99.90
47600;DHT22;33323;52.124;6.018;2023-04-15T02:09:26;3.20;99.90
47600;DHT22;33323;52.124;6.018;2023-04-15T02:11:53;3.20;99.90
47600;DHT22;33323;52.124;6.018;2023-04-15T02:14:20;3.00;99.90
47600;DHT22;33323;52.124;6.018;2023-04-15T02:16:47;3.00;99.90
47600;DHT22;33323;52.124;6.018;2023-04-15T02:19:15;3.00;99.90
47600;DHT22;33323;52.124;6.018;2023-04-15T02:21:42;3.00;99.90
47600;DHT22;33323;52.124;6.018;2023-04-15T02:24:09;3.00;99.90
47600;DHT22;33323;52.124;6.018;2023-04-15T02:26:40;3.00;99.90
47600;DHT22;33323;52.124;6.018;2023-04-15T02:29:07;3.00;99.90
47600;DHT22;33323;52.124;6.018;2023-04-15T02:31:34;3.00;99.90
47600;DHT22;33323;52.124;6.018;2023-04-15T02:34:06;2.90;99.90
47600;DHT22;33323;52.124;6.018;2023-04-15T02:36:33;2.90;99.90
47600;DHT22;33323;52.124;6.018;2023-04-15T02:39:01;2.80;99.90
47600;DHT22;33323;52.124;6.018;2023-04-15T02:41:29;2.80;99.90
47600;DHT22;33323;52.124;6.018;2023-04-15T02:43:56;2.80;99.90
47600;DHT22;33323;52.124;6.018;2023-04-15T02:46:23;2.80;99.90
47600;DHT22;33323;52.124;6.018;2023-04-15T02:48:50;2.70;99.90
47600;DHT22;33323;52.124;6.018;2023-04-15T02:51:21;2.70;99.90
47600;DHT22;33323;52.124;6.018;2023-04-15T02:53:50;2.70;99.90
47600;DHT22;33323;52.124;6.018;2023-04-15T02:56:17;2.70;99.90
47600;DHT22;33323;52.124;6.018;2023-04-15T02:58:46;2.70;99.90
47600;DHT22;33323;52.124;6.018;2023-04-15T03:01:16;2.70;99.90
47600;DHT22;33323;52.124;6.018;2023-04-15T03:03:43;2.70;99.90
47600;DHT22;33323;52.124;6.018;2023-04-15T03:06:10;2.70;99.90
47600;DHT22;33323;52.124;6.018;2023-04-15T03:08:37;2.60;99.90
47600;DHT22;33323;52.124;6.018;2023-04-15T03:11:04;2.60;99.90
47600;DHT22;33323;52.124;6.018;2023-04-15T03:13:32;2.50;99.90
47600;DHT22;33323;52.124;6.018;2023-04-15T03:16:07;2.50;99.90
47600;DHT22;33323;52.124;6.018;2023-04-15T03:18:34;2.50;99.90
47600;DHT22;33323;52.124;6.018;2023-04-15T03:21:02;2.40;99.90
47600;DHT22;33323;52.124;6.018;2023-04-15T03:23:33;2.50;99.90
47600;DHT22;33323;52.124;6.018;2023-04-15T03:26:01;2.50;99.90
47600;DHT22;33323;52.124;6.018;2023-04-15T03:28:30;2.50;99.90
47600;DHT22;33323;52.124;6.018;2023-04-15T03:30:59;2.50;99.90
47600;DHT22;33323;52.124;6.018;2023-04-15T03:33:27;2.40;99.90
47600;DHT22;33323;52.124;6.018;2023-04-15T03:35:54;2.40;99.90
47600;DHT22;33323;52.124;6.018;2023-04-15T03:38:21;2.30;99.90
47600;DHT22;33323;52.124;6.018;2023-04-15T03:40:48;2.30;99.90
47600;DHT22;33323;52.124;6.018;2023-04-15T03:43:15;2.30;99.90
47600;DHT22;33323;52.124;6.018;2023-04-15T03:45:42;2.30;99.90
47600;DHT22;33323;52.124;6.018;2023-04-15T03:48:09;2.20;99.90
47600;DHT22;33323;52.124;6.018;2023-04-15T03:50:44;2.20;99.90
47600;DHT22;33323;52.124;6.018;2023-04-15T03:53:11;2.20;99.90
47600;DHT22;33323;52.124;6.018;2023-04-15T03:55:38;2.20;99.90
47600;DHT22;33323;52.124;6.018;2023-04-15T03:58:05;2.10;99.90
47600;DHT22;33323;52.124;6.018;2023-04-15T04:00:32;2.00;99.90
47600;DHT22;33323;52.124;6.018;2023-04-15T04:03:00;2.00;99.90
47600;DHT22;33323;52.124;6.018;2023-04-15T04:05:27;2.00;99.90
47600;DHT22;33323;52.124;6.018;2023-04-15T04:07:55;2.00;99.90
47600;DHT22;33323;52.124;6.018;2023-04-15T04:10:22;2.10;99.90
47600;DHT22;33323;52.124;6.018;2023-04-15T04:12:49;2.10;99.90
47600;DHT22;33323;52.124;6.018;2023-04-15T04:15:16;2.00;99.90
47600;DHT22;33323;52.124;6.018;2023-04-15T04:17:43;1.80;99.90
47600;DHT22;33323;52.124;6.018;2023-04-15T04:20:10;1.90;99.90
47600;DHT22;33323;52.124;6.018;2023-04-15T04:22:38;1.90;99.90
47600;DHT22;33323;52.124;6.018;2023-04-15T04:25:06;1.90;99.90
47600;DHT22;33323;52.124;6.018;2023-04-15T04:27:34;1.90;99.90
47600;DHT22;33323;52.124;6.018;2023-04-15T04:30:02;1.90;99.90
47600;DHT22;33323;52.124;6.018;2023-04-15T04:32:29;1.90;99.90
47600;DHT22;33323;52.124;6.018;2023-04-15T04:34:57;1.80;99.90
47600;DHT22;33323;52.124;6.018;2023-04-15T04:37:24;1.80;99.90
47600;DHT22;33323;52.124;6.018;2023-04-15T04:39:51;1.80;99.90
47600;DHT22;33323;52.124;6.018;2023-04-15T04:42:18;1.70;99.90
47600;DHT22;33323;52.124;6.018;2023-04-15T04:44:45;1.70;99.90
47600;DHT22;33323;52.124;6.018;2023-04-15T04:47:12;1.80;99.90
47600;DHT22;33323;52.124;6.018;2023-04-15T04:49:39;1.80;99.90
47600;DHT22;33323;52.124;6.018;2023-04-15T04:52:07;1.80;99.90
47600;DHT22;33323;52.124;6.018;2023-04-15T04:54:34;1.80;99.90
47600;DHT22;33323;52.124;6.018;2023-04-15T04:57:01;1.80;99.90
47600;DHT22;33323;52.124;6.018;2023-04-15T04:59:28;1.80;99.90
47600;DHT22;33323;52.124;6.018;2023-04-15T05:01:55;1.70;99.90
47600;DHT22;33323;52.124;6.018;2023-04-15T05:04:22;1.70;99.90
47600;DHT22;33323;52.124;6.018;2023-04-15T05:06:49;1.80;99.90
47600;DHT22;33323;52.124;6.018;2023-04-15T05:09:17;1.80;99.90
47600;DHT22;33323;52.124;6.018;2023-04-15T05:11:44;1.80;99.90
47600;DHT22;33323;52.124;6.018;2023-04-15T05:14:11;1.80;99.90
47600;DHT22;33323;52.124;6.018;2023-04-15T05:16:38;1.90;99.90
47600;DHT22;33323;52.124;6.018;2023-04-15T05:19:05;2.00;99.90
47600;DHT22;33323;52.124;6.018;2023-04-15T05:21:33;2.10;99.90
47600;DHT22;33323;52.124;6.018;2023-04-15T05:24:00;2.20;99.90
47600;DHT22;33323;52.124;6.018;2023-04-15T05:26:27;2.30;99.90
47600;DHT22;33323;52.124;6.018;2023-04-15T05:28:54;2.40;99.90
47600;DHT22;33323;52.124;6.018;2023-04-15T05:31:21;2.70;99.90
47600;DHT22;33323;52.124;6.018;2023-04-15T05:33:48;3.10;99.90
47600;DHT22;33323;52.124;6.018;2023-04-15T05:36:15;3.50;99.90
47600;DHT22;33323;52.124;6.018;2023-04-15T05:38:42;3.90;99.90
47600;DHT22;33323;52.124;6.018;2023-04-15T05:41:10;4.30;99.90
47600;DHT22;33323;52.124;6.018;2023-04-15T05:43:37;4.60;99.90
47600;DHT22;33323;52.124;6.018;2023-04-15T05:46:04;4.80;99.90
47600;DHT22;33323;52.124;6.018;2023-04-15T05:48:31;5.10;99.90
47600;DHT22;33323;52.124;6.018;2023-04-15T05:50:58;5.20;99.90
47600;DHT22;33323;52.124;6.018;2023-04-15T05:53:25;5.20;99.90
47600;DHT22;33323;52.124;6.018;2023-04-15T05:55:52;5.60;99.90
47600;DHT22;33323;52.124;6.018;2023-04-15T05:58:19;6.10;99.90
47600;DHT22;33323;52.124;6.018;2023-04-15T06:00:46;6.50;99.90
47600;DHT22;33323;52.124;6.018;2023-04-15T06:03:13;6.90;99.90
47600;DHT22;33323;52.124;6.018;2023-04-15T06:05:40;7.20;99.90
47600;DHT22;33323;52.124;6.018;2023-04-15T06:08:07;7.30;99.90
47600;DHT22;33323;52.124;6.018;2023-04-15T06:10:34;7.40;99.90
47600;DHT22;33323;52.124;6.018;2023-04-15T06:13:02;7.50;99.90
47600;DHT22;33323;52.124;6.018;2023-04-15T06:15:30;7.50;99.90
47600;DHT22;33323;52.124;6.018;2023-04-15T06:17:57;7.50;99.90
47600;DHT22;33323;52.124;6.018;2023-04-15T06:20:25;7.50;99.90
47600;DHT22;33323;52.124;6.018;2023-04-15T06:22:51;7.50;99.90
47600;DHT22;33323;52.124;6.018;2023-04-15T06:25:18;7.60;99.90
47600;DHT22;33323;52.124;6.018;2023-04-15T06:27:46;7.80;99.90
47600;DHT22;33323;52.124;6.018;2023-04-15T06:30:13;8.00;99.90
47600;DHT22;33323;52.124;6.018;2023-04-15T06:32:40;8.30;99.90
47600;DHT22;33323;52.124;6.018;2023-04-15T06:35:08;8.70;99.90
47600;DHT22;33323;52.124;6.018;2023-04-15T06:37:35;8.90;99.90
47600;DHT22;33323;52.124;6.018;2023-04-15T06:40:02;9.10;99.90
47600;DHT22;33323;52.124;6.018;2023-04-15T06:42:30;9.10;99.90
47600;DHT22;33323;52.124;6.018;2023-04-15T06:44:57;9.00;99.90
47600;DHT22;33323;52.124;6.018;2023-04-15T06:47:24;9.00;99.90
47600;DHT22;33323;52.124;6.018;2023-04-15T06:49:52;8.90;99.90
47600;DHT22;33323;52.124;6.018;2023-04-15T06:52:19;8.70;99.90
47600;DHT22;33323;52.124;6.018;2023-04-15T06:54:46;8.60;99.90
47600;DHT22;33323;52.124;6.018;2023-04-15T06:57:13;8.50;99.90
47600;DHT22;33323;52.124;6.018;2023-04-15T06:59:40;8.30;99.90
47600;DHT22;33323;52.124;6.018;2023-04-15T07:02:11;8.20;99.90
47600;DHT22;33323;52.124;6.018;2023-04-15T07:04:38;8.20;99.90
47600;DHT22;33323;52.124;6.018;2023-04-15T07:07:06;8.10;99.90
47600;DHT22;33323;52.124;6.018;2023-04-15T07:09:33;8.10;99.90
47600;DHT22;33323;52.124;6.018;2023-04-15T07:12:00;8.00;99.90
47600;DHT22;33323;52.124;6.018;2023-04-15T07:14:27;8.00;99.90
47600;DHT22;33323;52.124;6.018;2023-04-15T07:16:55;8.00;99.90
47600;DHT22;33323;52.124;6.018;2023-04-15T07:19:22;8.00;99.90
47600;DHT22;33323;52.124;6.018;2023-04-15T07:21:50;8.00;99.90
47600;DHT22;33323;52.124;6.018;2023-04-15T07:24:17;8.00;99.90
47600;DHT22;33323;52.124;6.018;2023-04-15T07:26:45;8.20;99.90
47600;DHT22;33323;52.124;6.018;2023-04-15T07:29:12;8.30;99.90
47600;DHT22;33323;52.124;6.018;2023-04-15T07:31:39;8.30;99.90
47600;DHT22;33323;52.124;6.018;2023-04-15T07:34:07;8.40;99.90
47600;DHT22;33323;52.124;6.018;2023-04-15T07:36:35;8.50;99.90
47600;DHT22;33323;52.124;6.018;2023-04-15T07:39:02;8.60;99.90
47600;DHT22;33323;52.124;6.018;2023-04-15T07:41:30;8.70;99.90
47600;DHT22;33323;52.124;6.018;2023-04-15T07:43:57;8.70;99.90
47600;DHT22;33323;52.124;6.018;2023-04-15T07:46:24;8.80;99.90
47600;DHT22;33323;52.124;6.018;2023-04-15T07:48:53;8.90;99.90
47600;DHT22;33323;52.124;6.018;2023-04-15T07:51:20;8.90;99.90
47600;DHT22;33323;52.124;6.018;2023-04-15T07:53:48;9.10;99.90
47600;DHT22;33323;52.124;6.018;2023-04-15T07:56:16;9.20;99.90
47600;DHT22;33323;52.124;6.018;2023-04-15T07:58:43;9.30;99.90
47600;DHT22;33323;52.124;6.018;2023-04-15T08:01:10;9.40;99.90
47600;DHT22;33323;52.124;6.018;2023-04-15T08:03:37;9.40;99.90
47600;DHT22;33323;52.124;6.018;2023-04-15T08:06:05;9.50;99.90
47600;DHT22;33323;52.124;6.018;2023-04-15T08:08:32;9.60;99.90
47600;DHT22;33323;52.124;6.018;2023-04-15T08:10:59;9.60;99.90
47600;DHT22;33323;52.124;6.018;2023-04-15T08:13:26;9.60;99.90
47600;DHT22;33323;52.124;6.018;2023-04-15T08:16:17;9.50;99.90
47600;DHT22;33323;52.124;6.018;2023-04-15T08:18:49;9.40;99.90
47600;DHT22;33323;52.124;6.018;2023-04-15T08:21:18;9.50;99.90
47600;DHT22;33323;52.124;6.018;2023-04-15T08:23:46;9.70;99.90
47600;DHT22;33323;52.124;6.018;2023-04-15T08:26:15;9.70;99.90
47600;DHT22;33323;52.124;6.018;2023-04-15T08:28:44;9.70;99.90
47600;DHT22;33323;52.124;6.018;2023-04-15T08:31:15;9.70;99.90
47600;DHT22;33323;52.124;6.018;2023-04-15T08:33:43;9.60;99.90
47600;DHT22;33323;52.124;6.018;2023-04-15T08:36:10;9.60;99.90
47600;DHT22;33323;52.124;6.018;2023-04-15T08:38:37;9.60;99.90
47600;DHT22;33323;52.124;6.018;2023-04-15T08:43:53;9.80;99.90
47600;DHT22;33323;52.124;6.018;2023-04-15T08:46:24;9.90;99.90
47600;DHT22;33323;52.124;6.018;2023-04-15T08:48:51;9.90;99.90
47600;DHT22;33323;52.124;6.018;2023-04-15T08:51:23;10.00;99.90
47600;DHT22;33323;52.124;6.018;2023-04-15T08:53:51;10.00;99.90
47600;DHT22;33323;52.124;6.018;2023-04-15T08:56:25;10.10;99.90
47600;DHT22;33323;52.124;6.018;2023-04-15T08:58:56;10.30;99.90
47600;DHT22;33323;52.124;6.018;2023-04-15T09:01:23;10.50;99.90
47600;DHT22;33323;52.124;6.018;2023-04-15T09:03:52;10.90;99.90
47600;DHT22;33323;52.124;6.018;2023-04-15T09:06:22;10.80;99.90
47600;DHT22;33323;52.124;6.018;2023-04-15T09:08:50;10.80;99.90
47600;DHT22;33323;52.124;6.018;2023-04-15T09:11:18;11.00;99.90
47600;DHT22;33323;52.124;6.018;2023-04-15T09:13:46;10.80;99.90
47600;DHT22;33323;52.124;6.018;2023-04-15T09:16:13;10.90;99.90
47600;DHT22;33323;52.124;6.018;2023-04-15T09:18:40;10.90;99.90
47600;DHT22;33323;52.124;6.018;2023-04-15T09:21:09;11.00;99.90
47600;DHT22;33323;52.124;6.018;2023-04-15T09:23:39;11.00;99.90
47600;DHT22;33323;52.124;6.018;2023-04-15T09:29:09;10.90;99.90
47600;DHT22;33323;52.124;6.018;2023-04-15T09:31:40;10.80;99.90
47600;DHT22;33323;52.124;6.018;2023-04-15T09:34:07;10.90;99.90
47600;DHT22;33323;52.124;6.018;2023-04-15T09:39:16;11.20;99.90
47600;DHT22;33323;52.124;6.018;2023-04-15T09:41:43;11.10;99.90
47600;DHT22;33323;52.124;6.018;2023-04-15T09:44:23;11.50;99.90
47600;DHT22;33323;52.124;6.018;2023-04-15T09:46:51;11.80;99.90
47600;DHT22;33323;52.124;6.018;2023-04-15T09:49:18;11.50;99.90
47600;DHT22;33323;52.124;6.018;2023-04-15T09:51:46;11.50;99.90
47600;DHT22;33323;52.124;6.018;2023-04-15T09:54:34;11.50;99.90
47600;DHT22;33323;52.124;6.018;2023-04-15T09:57:08;11.60;99.90
47600;DHT22;33323;52.124;6.018;2023-04-15T09:59:36;11.60;99.90
47600;DHT22;33323;52.124;6.018;2023-04-15T10:02:04;11.70;99.90
47600;DHT22;33323;52.124;6.018;2023-04-15T10:04:35;11.80;99.90
47600;DHT22;33323;52.124;6.018;2023-04-15T10:07:08;11.90;99.90
47600;DHT22;33323;52.124;6.018;2023-04-15T10:09:35;12.10;99.90
47600;DHT22;33323;52.124;6.018;2023-04-15T10:12:04;12.60;99.90
47600;DHT22;33323;52.124;6.018;2023-04-15T10:14:34;12.60;99.90
47600;DHT22;33323;52.124;6.018;2023-04-15T10:17:03;12.30;99.90
47600;DHT22;33323;52.124;6.018;2023-04-15T10:19:32;11.80;99.90
47600;DHT22;33323;52.124;6.018;2023-04-15T10:22:03;11.80;99.90
47600;DHT22;33323;52.124;6.018;2023-04-15T10:24:30;12.10;99.90
47600;DHT22;33323;52.124;6.018;2023-04-15T10:27:02;12.20;99.90
47600;DHT22;33323;52.124;6.018;2023-04-15T10:29:31;11.80;99.90
47600;DHT22;33323;52.124;6.018;2023-04-15T10:31:59;11.60;99.90
47600;DHT22;33323;52.124;6.018;2023-04-15T10:34:27;11.50;99.90
47600;DHT22;33323;52.124;6.018;2023-04-15T10:37:08;11.60;99.90
47600;DHT22;33323;52.124;6.018;2023-04-15T10:44:57;12.10;99.90
47600;DHT22;33323;52.124;6.018;2023-04-15T10:47:24;12.20;99.90
47600;DHT22;33323;52.124;6.018;2023-04-15T10:49:59;12.30;99.90
47600;DHT22;33323;52.124;6.018;2023-04-15T10:52:28;12.70;99.90
47600;DHT22;33323;52.124;6.018;2023-04-15T10:57:34;12.30;99.90
47600;DHT22;33323;52.124;6.018;2023-04-15T11:00:12;12.30;99.90
47600;DHT22;33323;52.124;6.018;2023-04-15T11:05:21;12.50;99.90
47600;DHT22;33323;52.124;6.018;2023-04-15T11:07:56;12.20;99.90
47600;DHT22;33323;52.124;6.018;2023-04-15T11:12:53;12.00;99.90
47600;DHT22;33323;52.124;6.018;2023-04-15T11:15:37;11.80;99.90
47600;DHT22;33323;52.124;6.018;2023-04-15T11:18:10;11.90;99.90
47600;DHT22;33323;52.124;6.018;2023-04-15T11:20:44;12.10;99.90
47600;DHT22;33323;52.124;6.018;2023-04-15T11:23:18;12.20;99.90
47600;DHT22;33323;52.124;6.018;2023-04-15T11:25:45;12.60;99.90
47600;DHT22;33323;52.124;6.018;2023-04-15T11:28:14;13.10;99.90
47600;DHT22;33323;52.124;6.018;2023-04-15T11:30:41;13.20;99.90
47600;DHT22;33323;52.124;6.018;2023-04-15T11:33:10;13.10;99.90
47600;DHT22;33323;52.124;6.018;2023-04-15T11:35:40;13.30;99.90
47600;DHT22;33323;52.124;6.018;2023-04-15T11:38:09;13.00;99.90
47600;DHT22;33323;52.124;6.018;2023-04-15T11:40:38;12.60;99.90
47600;DHT22;33323;52.124;6.018;2023-04-15T11:43:09;12.30;99.90
47600;DHT22;33323;52.124;6.018;2023-04-15T11:45:54;12.30;99.90
47600;DHT22;33323;52.124;6.018;2023-04-15T11:48:24;12.50;99.90
47600;DHT22;33323;52.124;6.018;2023-04-15T11:51:00;12.30;99.90
47600;DHT22;33323;52.124;6.018;2023-04-15T11:58:52;12.80;99.90
47600;DHT22;33323;52.124;6.018;2023-04-15T12:01:37;12.40;99.90
47600;DHT22;33323;52.124;6.018;2023-04-15T12:04:14;12.70;99.90
47600;DHT22;33323;52.124;6.018;2023-04-15T12:06:51;12.60;99.90
47600;DHT22;33323;52.124;6.018;2023-04-15T12:09:19;12.40;99.90
47600;DHT22;33323;52.124;6.018;2023-04-15T12:11:50;12.40;99.90
47600;DHT22;33323;52.124;6.018;2023-04-15T12:14:32;12.30;99.90
47600;DHT22;33323;52.124;6.018;2023-04-15T12:17:01;12.20;99.90
47600;DHT22;33323;52.124;6.018;2023-04-15T12:19:40;12.10;99.90
47600;DHT22;33323;52.124;6.018;2023-04-15T12:22:10;12.20;99.90
47600;DHT22;33323;52.124;6.018;2023-04-15T12:24:39;12.30;99.90
47600;DHT22;33323;52.124;6.018;2023-04-15T12:27:13;12.50;99.90
47600;DHT22;33323;52.124;6.018;2023-04-15T12:29:41;13.10;99.90
47600;DHT22;33323;52.124;6.018;2023-04-15T12:32:13;12.80;99.90
47600;DHT22;33323;52.124;6.018;2023-04-15T12:34:45;12.50;99.90
47600;DHT22;33323;52.124;6.018;2023-04-15T12:37:16;12.30;99.90
47600;DHT22;33323;52.124;6.018;2023-04-15T12:39:47;12.20;99.90
47600;DHT22;33323;52.124;6.018;2023-04-15T12:42:16;12.20;99.90
47600;DHT22;33323;52.124;6.018;2023-04-15T12:44:43;12.30;99.90
47600;DHT22;33323;52.124;6.018;2023-04-15T12:47:11;12.30;99.90
47600;DHT22;33323;52.124;6.018;2023-04-15T12:49:39;12.70;99.90
47600;DHT22;33323;52.124;6.018;2023-04-15T12:52:06;13.10;99.90
47600;DHT22;33323;52.124;6.018;2023-04-15T12:54:33;13.20;99.90
47600;DHT22;33323;52.124;6.018;2023-04-15T12:57:01;12.90;99.90
47600;DHT22;33323;52.124;6.018;2023-04-15T12:59:33;12.50;99.90
47600;DHT22;33323;52.124;6.018;2023-04-15T13:02:00;12.40;99.90
47600;DHT22;33323;52.124;6.018;2023-04-15T13:04:28;12.20;99.90
47600;DHT22;33323;52.124;6.018;2023-04-15T13:06:58;12.30;99.90
47600;DHT22;33323;52.124;6.018;2023-04-15T13:09:27;12.50;99.90
47600;DHT22;33323;52.124;6.018;2023-04-15T13:11:54;12.30;99.90
47600;DHT22;33323;52.124;6.018;2023-04-15T13:14:21;12.40;99.90
47600;DHT22;33323;52.124;6.018;2023-04-15T13:16:48;12.30;99.90
47600;DHT22;33323;52.124;6.018;2023-04-15T13:19:16;12.30;99.90
47600;DHT22;33323;52.124;6.018;2023-04-15T13:21:43;12.30;99.90
47600;DHT22;33323;52.124;6.018;2023-04-15T13:24:10;12.30;99.90
47600;DHT22;33323;52.124;6.018;2023-04-15T13:26:37;12.30;99.90
47600;DHT22;33323;52.124;6.018;2023-04-15T13:29:04;12.20;99.90
47600;DHT22;33323;52.124;6.018;2023-04-15T13:31:31;12.20;99.90
47600;DHT22;33323;52.124;6.018;2023-04-15T13:33:58;11.90;99.90
47600;DHT22;33323;52.124;6.018;2023-04-15T13:36:25;11.60;99.90
47600;DHT22;33323;52.124;6.018;2023-04-15T13:38:53;11.80;99.90
47600;DHT22;33323;52.124;6.018;2023-04-15T13:41:20;11.90;99.90
47600;DHT22;33323;52.124;6.018;2023-04-15T13:43:47;12.00;99.90
47600;DHT22;33323;52.124;6.018;2023-04-15T13:46:14;11.90;99.90
47600;DHT22;33323;52.124;6.018;2023-04-15T13:48:41;11.80;99.90
47600;DHT22;33323;52.124;6.018;2023-04-15T13:51:08;11.60;99.90
47600;DHT22;33323;52.124;6.018;2023-04-15T13:53:35;11.50;99.90
47600;DHT22;33323;52.124;6.018;2023-04-15T13:56:08;11.40;99.90
47600;DHT22;33323;52.124;6.018;2023-04-15T13:58:36;11.30;99.90
47600;DHT22;33323;52.124;6.018;2023-04-15T14:01:04;11.30;99.90
47600;DHT22;33323;52.124;6.018;2023-04-15T14:03:36;11.20;99.90
47600;DHT22;33323;52.124;6.018;2023-04-15T14:06:04;11.10;99.90
47600;DHT22;33323;52.124;6.018;2023-04-15T14:08:32;11.10;99.90
47600;DHT22;33323;52.124;6.018;2023-04-15T14:10:59;11.10;99.90
47600;DHT22;33323;52.124;6.018;2023-04-15T14:13:27;11.00;99.90
47600;DHT22;33323;52.124;6.018;2023-04-15T14:15:53;11.00;99.90
47600;DHT22;33323;52.124;6.018;2023-04-15T14:18:22;11.10;99.90
47600;DHT22;33323;52.124;6.018;2023-04-15T14:20:49;11.00;99.90
47600;DHT22;33323;52.124;6.018;2023-04-15T14:23:16;10.90;99.90
47600;DHT22;33323;52.124;6.018;2023-04-15T14:25:43;10.80;99.90
47600;DHT22;33323;52.124;6.018;2023-04-15T14:28:13;10.70;99.90
47600;DHT22;33323;52.124;6.018;2023-04-15T14:30:41;10.80;99.90
47600;DHT22;33323;52.124;6.018;2023-04-15T14:33:08;10.70;99.90
47600;DHT22;33323;52.124;6.018;2023-04-15T14:35:35;10.60;99.90
47600;DHT22;33323;52.124;6.018;2023-04-15T14:38:02;10.60;99.90
47600;DHT22;33323;52.124;6.018;2023-04-15T14:40:29;10.70;99.90
47600;DHT22;33323;52.124;6.018;2023-04-15T14:42:56;10.60;99.90
47600;DHT22;33323;52.124;6.018;2023-04-15T14:45:23;10.70;99.90
47600;DHT22;33323;52.124;6.018;2023-04-15T14:47:50;10.70;99.90
47600;DHT22;33323;52.124;6.018;2023-04-15T14:50:18;10.70;99.90
47600;DHT22;33323;52.124;6.018;2023-04-15T14:52:46;10.70;99.90
47600;DHT22;33323;52.124;6.018;2023-04-15T14:55:13;10.50;99.90
47600;DHT22;33323;52.124;6.018;2023-04-15T14:57:41;10.40;99.90
47600;DHT22;33323;52.124;6.018;2023-04-15T15:00:09;10.30;99.90
47600;DHT22;33323;52.124;6.018;2023-04-15T15:02:41;10.20;99.90
47600;DHT22;33323;52.124;6.018;2023-04-15T15:05:10;10.20;99.90
47600;DHT22;33323;52.124;6.018;2023-04-15T15:07:38;10.20;99.90
47600;DHT22;33323;52.124;6.018;2023-04-15T15:10:06;10.10;99.90
47600;DHT22;33323;52.124;6.018;2023-04-15T15:12:34;10.20;99.90
47600;DHT22;33323;52.124;6.018;2023-04-15T15:15:03;10.30;99.90
47600;DHT22;33323;52.124;6.018;2023-04-15T15:17:41;10.20;99.90
47600;DHT22;33323;52.124;6.018;2023-04-15T15:20:09;10.20;99.90
47600;DHT22;33323;52.124;6.018;2023-04-15T15:22:36;10.30;99.90
47600;DHT22;33323;52.124;6.018;2023-04-15T15:25:03;10.30;99.90
47600;DHT22;33323;52.124;6.018;2023-04-15T15:27:31;10.60;99.90
47600;DHT22;33323;52.124;6.018;2023-04-15T15:29:58;10.40;99.90
47600;DHT22;33323;52.124;6.018;2023-04-15T15:32:25;10.30;99.90
47600;DHT22;33323;52.124;6.018;2023-04-15T15:34:52;10.20;99.90
47600;DHT22;33323;52.124;6.018;2023-04-15T15:37:19;10.20;99.90
47600;DHT22;33323;52.124;6.018;2023-04-15T15:39:47;10.20;99.90
47600;DHT22;33323;52.124;6.018;2023-04-15T15:42:14;10.20;99.90
47600;DHT22;33323;52.124;6.018;2023-04-15T15:44:41;10.40;99.90
47600;DHT22;33323;52.124;6.018;2023-04-15T15:47:08;10.50;99.90
47600;DHT22;33323;52.124;6.018;2023-04-15T15:49:35;10.50;99.90
47600;DHT22;33323;52.124;6.018;2023-04-15T15:52:02;10.30;99.90
47600;DHT22;33323;52.124;6.018;2023-04-15T15:54:29;10.10;99.90
47600;DHT22;33323;52.124;6.018;2023-04-15T15:56:56;10.00;99.90
47600;DHT22;33323;52.124;6.018;2023-04-15T15:59:23;10.00;99.90
47600;DHT22;33323;52.124;6.018;2023-04-15T16:01:51;10.10;99.90
47600;DHT22;33323;52.124;6.018;2023-04-15T16:04:18;10.10;99.90
47600;DHT22;33323;52.124;6.018;2023-04-15T16:06:45;10.10;99.90
47600;DHT22;33323;52.124;6.018;2023-04-15T16:09:13;9.90;99.90
47600;DHT22;33323;52.124;6.018;2023-04-15T16:11:39;10.00;99.90
47600;DHT22;33323;52.124;6.018;2023-04-15T16:14:07;10.00;99.90